Time;durP1;ratioP1;P1;durP2;ratioP2;P2;SDS_P1;SDS_P2;PMS_P1;PMS_P2;Temp;Humidity;BMP_temperature;BMP_pressure;BME280_temperature;BME280_humidity;BME280_pressure;Samples;Min_cycle;Max_cycle;Signal;HPM_P1;HPM_P2
2022/07/03 00:01:30;;;;;;;1.40;0.80;;;19.40;99.90;;;;;;5075800;28;20032;-65
2022/07/03 00:03:56;;;;;;;3.88;0.85;;;19.40;99.90;;;;;;5075742;28;20036;-65
2022/07/03 00:06:21;;;;;;;1.80;0.77;;;19.50;99.90;;;;;;5075521;28;20035;-71
2022/07/03 00:08:48;;;;;;;3.42;1.08;;;19.60;99.80;;;;;;5075528;28;20111;-69
2022/07/03 00:11:13;;;;;;;2.15;0.90;;;19.60;99.70;;;;;;5075306;28;20040;-66
2022/07/03 00:13:39;;;;;;;2.40;0.98;;;19.60;99.90;;;;;;5075439;28;20036;-66
2022/07/03 00:16:05;;;;;;;1.80;0.90;;;19.40;99.90;;;;;;5075471;28;20051;-71
2022/07/03 00:18:31;;;;;;;1.88;0.98;;;19.20;99.90;;;;;;5073900;28;20131;-69
2022/07/03 00:21:05;;;;;;;2.92;1.00;;;19.10;99.90;;;;;;5075046;28;20071;-71
2022/07/03 00:23:44;;;;;;;3.15;0.70;;;19.20;99.90;;;;;;5074893;28;20047;-70
2022/07/03 00:26:12;;;;;;;1.55;0.70;;;19.20;99.90;;;;;;5075174;28;20036;-71
2022/07/03 00:28:38;;;;;;;1.75;0.65;;;19.10;99.90;;;;;;5075027;28;20070;-70
2022/07/03 00:31:04;;;;;;;1.85;0.90;;;19.10;99.90;;;;;;5074876;28;20097;-70
2022/07/03 00:33:34;;;;;;;3.38;0.73;;;19.00;99.90;;;;;;5074908;28;20029;-68
2022/07/03 00:36:00;;;;;;;3.23;1.00;;;19.00;99.90;;;;;;5075005;28;20040;-66
2022/07/03 00:38:27;;;;;;;1.45;0.95;;;19.10;99.90;;;;;;5074860;28;20205;-66
2022/07/03 00:40:53;;;;;;;2.97;0.70;;;19.10;99.90;;;;;;5074136;28;20071;-66
2022/07/03 00:43:19;;;;;;;3.42;0.80;;;19.10;99.90;;;;;;5074810;28;20483;-67
2022/07/03 00:45:49;;;;;;;5.68;1.67;;;19.20;99.90;;;;;;5074759;28;20115;-66
2022/07/03 00:48:17;;;;;;;4.75;1.08;;;19.20;99.90;;;;;;5073366;28;20406;-66
2022/07/03 00:50:51;;;;;;;3.38;1.00;;;19.20;99.90;;;;;;5074665;28;20437;-67
2022/07/03 00:53:37;;;;;;;5.55;0.95;;;19.10;99.90;;;;;;5074602;28;20036;-65
2022/07/03 00:56:04;;;;;;;2.15;0.75;;;19.10;99.90;;;;;;5074579;28;20028;-66
2022/07/03 00:58:33;;;;;;;1.77;0.90;;;19.10;99.90;;;;;;5074406;28;20488;-70
2022/07/03 01:01:00;;;;;;;3.03;0.75;;;19.20;99.90;;;;;;5074465;28;20503;-66
2022/07/03 01:03:27;;;;;;;3.60;0.82;;;19.10;99.90;;;;;;5074216;28;20047;-71
2022/07/03 01:05:55;;;;;;;3.38;0.80;;;18.90;99.90;;;;;;5074369;28;20590;-66
2022/07/03 01:08:35;;;;;;;1.80;0.80;;;18.80;99.90;;;;;;5074240;28;20495;-66
2022/07/03 01:11:19;;;;;;;1.80;1.08;;;18.90;99.90;;;;;;5074485;28;20044;-71
2022/07/03 01:14:14;;;;;;;2.88;0.65;;;18.90;99.90;;;;;;5074162;28;20495;-66
2022/07/03 01:17:06;;;;;;;1.52;0.60;;;18.90;99.90;;;;;;5074388;28;20040;-70
2022/07/03 01:19:45;;;;;;;3.88;0.77;;;18.90;99.90;;;;;;5074244;28;20098;-66
2022/07/03 01:22:30;;;;;;;1.92;0.75;;;19.00;99.90;;;;;;5073994;28;20044;-66
2022/07/03 01:25:08;;;;;;;2.70;1.02;;;19.10;99.90;;;;;;5074216;28;20086;-70
2022/07/03 01:27:42;;;;;;;4.32;0.80;;;19.10;99.90;;;;;;5074313;28;20555;-71
2022/07/03 01:30:11;;;;;;;2.90;0.77;;;19.20;99.90;;;;;;5072651;28;20097;-66
2022/07/03 01:32:42;;;;;;;1.77;0.80;;;19.20;99.90;;;;;;5074008;28;20024;-66
2022/07/03 01:35:11;;;;;;;2.30;0.63;;;19.30;99.90;;;;;;5074029;28;20071;-71
2022/07/03 01:37:40;;;;;;;1.40;0.60;;;19.30;99.90;;;;;;5073837;28;20446;-70
2022/07/03 01:40:08;;;;;;;2.22;1.13;;;19.30;99.90;;;;;;5073906;28;20324;-70
2022/07/03 01:42:37;;;;;;;1.08;0.93;;;19.00;99.90;;;;;;5074042;28;20399;-70
2022/07/03 01:45:04;;;;;;;1.00;0.75;;;18.70;99.90;;;;;;5073815;28;20499;-67
2022/07/03 01:47:31;;;;;;;1.98;0.70;;;18.40;99.90;;;;;;5073908;28;20043;-66
2022/07/03 01:49:57;;;;;;;3.33;0.95;;;18.40;99.90;;;;;;5073846;28;20048;-66
2022/07/03 01:52:26;;;;;;;1.13;0.70;;;18.10;99.90;;;;;;5076112;28;20044;-66
2022/07/03 01:54:53;;;;;;;4.88;0.90;;;17.90;99.90;;;;;;5078033;28;20066;-66
2022/07/03 01:57:21;;;;;;;0.93;0.47;;;17.80;99.90;;;;;;5077881;28;20036;-66
2022/07/03 01:59:46;;;;;;;3.83;0.93;;;18.00;99.90;;;;;;5077971;28;20080;-68
2022/07/03 02:02:34;;;;;;;0.65;0.60;;;18.30;99.90;;;;;;5078054;28;20499;-67
2022/07/03 02:05:07;;;;;;;1.63;0.98;;;18.50;99.90;;;;;;5077895;28;20054;-70
2022/07/03 02:07:47;;;;;;;3.83;1.15;;;18.60;99.90;;;;;;5077741;28;20046;-66
2022/07/03 02:10:16;;;;;;;0.90;0.60;;;18.50;99.90;;;;;;5093433;28;20115;-66
2022/07/03 02:12:48;;;;;;;1.42;0.80;;;18.30;99.90;;;;;;5077810;28;20131;-66
2022/07/03 02:15:18;;;;;;;3.40;0.85;;;18.40;99.90;;;;;;5077766;28;20491;-70
2022/07/03 02:17:46;;;;;;;0.93;0.65;;;18.50;99.90;;;;;;5072264;28;20082;-66
2022/07/03 02:20:14;;;;;;;1.85;0.80;;;18.60;99.90;;;;;;5057437;28;20051;-66
2022/07/03 02:22:47;;;;;;;1.25;0.55;;;18.60;99.90;;;;;;5057522;28;20653;-66
2022/07/03 02:25:22;;;;;;;5.10;0.95;;;18.60;99.90;;;;;;5057499;28;20044;-66
2022/07/03 02:28:03;;;;;;;2.30;0.80;;;18.60;99.90;;;;;;5057483;28;20040;-65
2022/07/03 02:30:29;;;;;;;3.22;0.90;;;18.50;99.90;;;;;;5057329;28;20399;-67
2022/07/03 02:32:58;;;;;;;3.30;1.17;;;18.60;99.90;;;;;;5064620;28;20047;-66
2022/07/03 02:35:29;;;;;;;3.22;0.80;;;18.70;99.90;;;;;;5077226;28;20066;-70
2022/07/03 02:38:00;;;;;;;2.80;0.90;;;18.90;99.90;;;;;;5077037;28;20044;-70
2022/07/03 02:40:47;;;;;;;1.33;0.65;;;18.90;99.90;;;;;;5077298;28;20036;-71
2022/07/03 02:43:43;;;;;;;2.75;0.85;;;19.00;99.90;;;;;;5077231;28;20135;-71
2022/07/03 02:49:23;;;;;;;1.15;0.75;;;18.90;99.90;;;;;;5076892;28;20067;-67
2022/07/03 02:51:57;;;;;;;;;;;18.90;99.90;;;;;;5077584;28;20040;-70
2022/07/03 02:54:24;;;;;;;2.25;0.95;;;18.90;99.90;;;;;;5076990;28;19908;-68
2022/07/03 02:57:09;;;;;;;1.70;0.70;;;19.10;99.90;;;;;;5077085;28;20380;-71
2022/07/03 02:59:56;;;;;;;3.40;0.60;;;19.00;99.90;;;;;;5076889;28;20127;-66
2022/07/03 03:02:22;;;;;;;4.32;0.93;;;19.00;99.90;;;;;;5076869;28;20040;-68
2022/07/03 03:05:15;;;;;;;1.83;1.00;;;19.00;99.90;;;;;;5075940;28;20043;-65
2022/07/03 03:08:22;;;;;;;2.05;1.10;;;18.90;99.90;;;;;;5076711;28;20056;-70
2022/07/03 03:10:50;;;;;;;1.48;0.65;;;18.60;99.90;;;;;;5075331;28;20131;-67
2022/07/03 03:13:19;;;;;;;5.80;0.95;;;18.50;99.90;;;;;;5076469;28;20116;-66
2022/07/03 03:15:57;;;;;;;1.92;0.57;;;18.70;99.90;;;;;;5076433;28;20044;-71
2022/07/03 03:18:27;;;;;;;3.33;0.63;;;18.70;99.90;;;;;;5076369;28;20059;-66
2022/07/03 03:20:59;;;;;;;1.20;0.70;;;18.60;99.90;;;;;;5076200;28;20679;-66
2022/07/03 03:23:37;;;;;;;2.50;0.70;;;18.90;99.90;;;;;;5076107;28;20093;-69
2022/07/03 03:26:03;;;;;;;2.25;1.10;;;19.10;99.90;;;;;;5075111;28;20036;-71
2022/07/03 03:28:30;;;;;;;1.75;0.88;;;18.90;99.90;;;;;;5076382;28;20046;-71
2022/07/03 03:30:56;;;;;;;2.38;0.77;;;18.60;99.90;;;;;;5076102;28;20044;-66
2022/07/03 03:33:22;;;;;;;4.25;0.80;;;18.50;99.90;;;;;;5075882;28;20094;-69
2022/07/03 03:35:48;;;;;;;2.45;0.80;;;18.50;99.90;;;;;;5076287;28;20119;-66
2022/07/03 03:38:15;;;;;;;2.97;1.02;;;18.70;99.90;;;;;;5076065;28;20139;-66
2022/07/03 03:40:41;;;;;;;1.98;0.80;;;18.60;99.90;;;;;;5076164;28;20032;-71
2022/07/03 03:43:06;;;;;;;2.95;1.38;;;18.60;99.90;;;;;;5076140;28;20044;-69
2022/07/03 03:45:32;;;;;;;1.77;0.70;;;18.90;99.90;;;;;;5076129;28;20044;-66
2022/07/03 03:47:58;;;;;;;1.15;0.73;;;19.00;99.90;;;;;;5075833;28;20116;-66
2022/07/03 03:50:24;;;;;;;2.05;0.80;;;19.10;99.90;;;;;;5075951;28;20063;-71
2022/07/03 03:52:50;;;;;;;5.00;1.00;;;19.10;99.90;;;;;;5075778;28;20516;-66
2022/07/03 03:55:16;;;;;;;1.30;0.77;;;18.50;99.90;;;;;;5075752;28;20142;-66
2022/07/03 03:57:42;;;;;;;1.98;1.05;;;18.20;99.90;;;;;;5075829;28;20048;-66
2022/07/03 04:00:08;;;;;;;1.30;0.60;;;18.00;99.90;;;;;;5075736;28;20043;-67
2022/07/03 04:02:33;;;;;;;2.92;1.10;;;17.90;99.90;;;;;;5075617;28;20515;-70
2022/07/03 04:04:59;;;;;;;5.03;0.98;;;18.00;99.90;;;;;;5075570;28;20105;-66
2022/07/03 04:07:25;;;;;;;1.95;0.80;;;18.30;99.90;;;;;;5075344;28;20116;-66
2022/07/03 04:09:51;;;;;;;3.83;0.80;;;18.20;99.90;;;;;;5075294;28;20051;-67
2022/07/03 04:12:17;;;;;;;3.00;1.10;;;18.40;99.90;;;;;;5075450;28;20499;-66
2022/07/03 04:14:42;;;;;;;2.85;1.10;;;18.40;99.90;;;;;;5075357;28;20040;-67
2022/07/03 04:17:08;;;;;;;3.17;0.90;;;18.40;99.90;;;;;;5075228;28;20123;-70
2022/07/03 04:19:34;;;;;;;2.72;1.42;;;18.20;99.90;;;;;;5075326;28;20415;-66
2022/07/03 04:22:00;;;;;;;2.70;0.85;;;18.10;99.90;;;;;;5073937;28;20491;-67
2022/07/03 04:24:26;;;;;;;1.77;0.60;;;18.30;99.90;;;;;;5075256;28;20050;-71
2022/07/03 04:26:52;;;;;;;2.58;0.90;;;18.50;99.90;;;;;;5074374;28;20044;-70
2022/07/03 04:29:17;;;;;;;1.98;0.95;;;18.30;99.90;;;;;;5057226;28;20037;-66
2022/07/03 04:31:43;;;;;;;2.97;0.82;;;18.20;99.90;;;;;;5059231;28;20157;-66
2022/07/03 04:34:09;;;;;;;2.00;0.90;;;18.20;99.90;;;;;;5075153;28;20567;-69
2022/07/03 04:36:35;;;;;;;2.67;0.77;;;18.20;99.90;;;;;;5074922;28;20075;-71
2022/07/03 04:39:00;;;;;;;2.80;0.85;;;18.30;99.90;;;;;;5074866;28;20080;-70
2022/07/03 04:41:26;;;;;;;2.75;0.88;;;18.50;99.90;;;;;;5074975;28;20449;-66
2022/07/03 04:43:52;;;;;;;2.17;0.77;;;18.40;99.90;;;;;;5073520;28;20043;-68
2022/07/03 04:46:17;;;;;;;1.52;0.80;;;18.50;99.90;;;;;;5074751;28;20043;-65
2022/07/03 04:48:43;;;;;;;1.83;0.75;;;18.40;99.90;;;;;;5074653;28;20040;-65
2022/07/03 04:51:09;;;;;;;3.75;0.98;;;18.50;99.90;;;;;;5074882;28;20411;-68
2022/07/03 04:53:35;;;;;;;3.53;1.02;;;18.50;99.90;;;;;;5074727;28;20515;-66
2022/07/03 04:56:00;;;;;;;2.30;0.80;;;18.70;99.90;;;;;;5074586;28;20044;-70
2022/07/03 04:58:26;;;;;;;4.20;1.10;;;18.80;99.90;;;;;;5074379;28;20044;-70
2022/07/03 05:00:52;;;;;;;1.63;0.93;;;18.60;99.90;;;;;;5074393;28;20079;-66
2022/07/03 05:03:18;;;;;;;4.10;0.93;;;18.10;99.90;;;;;;5074470;28;20032;-66
2022/07/03 05:05:43;;;;;;;2.75;1.00;;;18.20;99.90;;;;;;5074564;28;20040;-66
2022/07/03 05:08:09;;;;;;;3.03;0.95;;;18.20;99.90;;;;;;5074422;28;20123;-71
2022/07/03 05:10:35;;;;;;;1.90;0.63;;;18.20;99.90;;;;;;5074429;28;20051;-66
2022/07/03 05:13:01;;;;;;;3.88;1.10;;;18.40;99.90;;;;;;5074392;28;20158;-69
2022/07/03 05:15:27;;;;;;;1.63;0.90;;;18.70;99.90;;;;;;5074155;28;20054;-67
2022/07/03 05:17:52;;;;;;;1.27;1.00;;;18.90;99.90;;;;;;5074147;28;20083;-66
2022/07/03 05:20:24;;;;;;;1.25;0.88;;;19.10;99.90;;;;;;5074226;28;20032;-66
2022/07/03 05:22:51;;;;;;;2.15;0.98;;;19.30;99.90;;;;;;5074259;28;20098;-67
2022/07/03 05:25:17;;;;;;;1.42;0.85;;;19.60;99.90;;;;;;5074238;28;20181;-66
2022/07/03 05:27:43;;;;;;;5.30;1.23;;;19.90;99.90;;;;;;5072218;28;20067;-69
2022/07/03 05:30:10;;;;;;;3.55;0.73;;;20.10;99.90;;;;;;5074066;28;20075;-70
2022/07/03 05:32:36;;;;;;;6.07;0.90;;;20.30;99.90;;;;;;5073165;28;20399;-66
2022/07/03 05:35:02;;;;;;;2.63;1.30;;;20.40;99.90;;;;;;5074109;28;20051;-67
2022/07/03 05:37:28;;;;;;;3.80;1.25;;;20.50;99.90;;;;;;5072569;28;20048;-65
2022/07/03 05:39:53;;;;;;;2.85;1.00;;;20.60;99.90;;;;;;5074291;28;20040;-70
2022/07/03 05:42:19;;;;;;;2.42;1.10;;;20.80;99.90;;;;;;5073968;28;20093;-71
2022/07/03 05:44:45;;;;;;;3.05;1.05;;;21.00;99.90;;;;;;5074065;28;20445;-67
2022/07/03 05:47:11;;;;;;;2.22;0.98;;;21.20;99.90;;;;;;5073968;28;20071;-67
2022/07/03 05:49:36;;;;;;;1.65;0.80;;;21.30;99.90;;;;;;5073947;28;20169;-71
2022/07/03 05:52:02;;;;;;;1.77;1.15;;;21.00;99.90;;;;;;5073828;28;20036;-65
2022/07/03 05:54:28;;;;;;;3.13;0.90;;;20.90;99.90;;;;;;5073861;28;20452;-67
2022/07/03 05:56:54;;;;;;;3.80;1.15;;;20.70;99.90;;;;;;5073554;28;20090;-72
2022/07/03 05:59:20;;;;;;;2.85;1.00;;;21.00;99.90;;;;;;5073802;28;20109;-70
2022/07/03 06:01:45;;;;;;;3.67;0.98;;;21.40;99.90;;;;;;5073893;28;20045;-66
2022/07/03 06:04:11;;;;;;;4.28;1.30;;;21.60;99.90;;;;;;5073797;28;20465;-71
2022/07/03 06:06:37;;;;;;;4.30;1.00;;;21.70;99.90;;;;;;5073651;28;20773;-66
2022/07/03 06:09:03;;;;;;;1.55;0.75;;;21.90;99.90;;;;;;5073628;28;20040;-66
2022/07/03 06:11:29;;;;;;;4.72;1.00;;;22.00;99.90;;;;;;5073582;28;20399;-66
2022/07/03 06:13:54;;;;;;;1.48;0.90;;;22.00;99.90;;;;;;5073643;28;20041;-70
2022/07/03 06:16:20;;;;;;;6.45;0.85;;;22.00;99.90;;;;;;5073836;28;20028;-71
2022/07/03 06:18:46;;;;;;;4.47;1.00;;;21.90;99.90;;;;;;5073528;28;20051;-66
2022/07/03 06:21:12;;;;;;;3.38;0.88;;;21.80;99.90;;;;;;5073920;28;20090;-66
2022/07/03 06:23:37;;;;;;;4.95;0.90;;;21.80;99.90;;;;;;5063537;28;20080;-66
2022/07/03 06:26:03;;;;;;;3.17;0.98;;;22.00;99.90;;;;;;5053557;28;20037;-66
2022/07/03 06:28:29;;;;;;;1.38;0.90;;;21.90;99.90;;;;;;5053563;28;20072;-66
2022/07/03 06:30:55;;;;;;;1.60;0.93;;;;;;;;;;5053368;28;20033;-68
2022/07/03 06:33:22;;;;;;;5.60;1.08;;;22.30;99.90;;;;;;5052723;28;20044;-69
2022/07/03 06:35:48;;;;;;;3.45;1.17;;;22.60;99.90;;;;;;5052843;28;20119;-66
2022/07/03 06:38:14;;;;;;;2.63;1.00;;;22.90;99.90;;;;;;5064853;28;20143;-66
2022/07/03 06:40:39;;;;;;;3.60;1.00;;;22.80;99.90;;;;;;5076555;28;20048;-71
2022/07/03 06:43:05;;;;;;;5.55;0.93;;;23.00;99.90;;;;;;5077087;28;20090;-67
2022/07/03 06:45:31;;;;;;;2.35;0.88;;;23.20;99.90;;;;;;5077074;28;20379;-66
2022/07/03 06:47:57;;;;;;;1.75;0.85;;;23.30;99.90;;;;;;5076935;28;20072;-66
2022/07/03 06:50:22;;;;;;;1.58;1.00;;;23.40;99.90;;;;;;5077113;28;20506;-71
2022/07/03 06:52:48;;;;;;;2.92;1.15;;;23.70;99.90;;;;;;5077034;28;20487;-66
2022/07/03 06:55:14;;;;;;;4.55;0.80;;;23.70;99.90;;;;;;5076938;28;20036;-66
2022/07/03 06:57:40;;;;;;;3.80;0.95;;;24.00;99.90;;;;;;5076791;28;20127;-71
2022/07/03 07:00:06;;;;;;;3.90;1.30;;;24.20;99.90;;;;;;5076865;28;20072;-70
2022/07/03 07:02:32;;;;;;;3.60;0.80;;;24.20;99.90;;;;;;5076915;28;20040;-70
2022/07/03 07:04:57;;;;;;;3.80;1.00;;;24.30;99.90;;;;;;5076851;28;20039;-66
2022/07/03 07:07:23;;;;;;;2.55;0.77;;;24.40;99.90;;;;;;5076704;28;20418;-70
2022/07/03 07:09:49;;;;;;;4.35;0.82;;;24.30;99.90;;;;;;5076604;28;20040;-70
2022/07/03 07:12:15;;;;;;;1.90;0.63;;;24.70;99.90;;;;;;5076720;28;20458;-67
2022/07/03 07:14:42;;;;;;;2.15;1.00;;;24.70;99.90;;;;;;5076686;28;20400;-67
2022/07/03 07:17:08;;;;;;;3.53;0.90;;;24.80;99.90;;;;;;5076468;28;20040;-67
2022/07/03 07:19:33;;;;;;;3.25;0.77;;;25.00;99.90;;;;;;5076527;28;20464;-71
2022/07/03 07:22:00;;;;;;;3.47;0.77;;;25.40;99.90;;;;;;5076588;28;20047;-70
2022/07/03 07:24:27;;;;;;;4.00;1.00;;;25.40;99.90;;;;;;5076378;28;20557;-67
2022/07/03 07:26:53;;;;;;;2.92;0.80;;;25.10;99.90;;;;;;5076435;28;20050;-67
2022/07/03 07:29:19;;;;;;;4.50;0.90;;;24.80;99.90;;;;;;5076317;28;20036;-70
2022/07/03 07:31:45;;;;;;;1.88;0.63;;;25.00;99.90;;;;;;5076584;28;20036;-67
2022/07/03 07:34:11;;;;;;;5.35;1.10;;;25.20;99.90;;;;;;5076537;28;20551;-71
2022/07/03 07:36:37;;;;;;;1.25;0.70;;;25.90;99.90;;;;;;5076323;28;20110;-72
2022/07/03 07:39:03;;;;;;;1.95;0.70;;;25.90;99.90;;;;;;5076027;28;20132;-67
2022/07/03 07:41:29;;;;;;;3.78;0.90;;;25.80;99.90;;;;;;5076098;28;20515;-66
2022/07/03 07:43:55;;;;;;;2.08;0.60;;;25.90;99.90;;;;;;5076013;28;20076;-67
2022/07/03 07:46:21;;;;;;;2.13;0.80;;;26.00;99.90;;;;;;5076141;28;20519;-71
2022/07/03 07:48:46;;;;;;;2.53;0.70;;;25.90;99.90;;;;;;5076139;28;20036;-66
2022/07/03 07:51:12;;;;;;;2.20;0.70;;;25.60;99.50;;;;;;5075736;28;20147;-71
2022/07/03 07:53:38;;;;;;;2.38;0.70;;;26.00;99.90;;;;;;5075937;28;20040;-72
2022/07/03 07:56:04;;;;;;;0.70;0.50;;;26.10;98.40;;;;;;5075869;28;20119;-67
2022/07/03 07:58:29;;;;;;;4.28;0.70;;;26.10;98.90;;;;;;5075640;28;20135;-67
2022/07/03 08:06:24;;;;;;;0.75;0.50;;;26.70;99.30;;;;;;5075464;28;20031;-67
2022/07/03 08:08:49;;;;;;;1.23;0.60;;;26.70;98.10;;;;;;5074203;28;20052;-72
2022/07/03 08:11:15;;;;;;;2.28;0.75;;;26.80;98.60;;;;;;5075535;28;20468;-66
2022/07/03 08:13:41;;;;;;;2.13;0.80;;;27.20;98.90;;;;;;5075559;28;20127;-67
2022/07/03 08:16:07;;;;;;;2.25;0.50;;;27.30;99.10;;;;;;5075469;28;20029;-72
2022/07/03 08:18:32;;;;;;;0.82;0.55;;;27.20;97.60;;;;;;5075208;28;20181;-67
2022/07/03 08:20:58;;;;;;;2.47;0.70;;;27.40;99.90;;;;;;5075344;28;20045;-67
2022/07/03 08:23:24;;;;;;;6.65;0.82;;;27.30;97.80;;;;;;5075297;28;20047;-67
2022/07/03 08:25:50;;;;;;;1.20;0.70;;;26.90;98.80;;;;;;5075315;28;20041;-72
2022/07/03 08:28:15;;;;;;;1.92;0.73;;;26.80;98.00;;;;;;5075205;28;20055;-66
2022/07/03 08:30:41;;;;;;;1.08;0.60;;;26.60;98.20;;;;;;5075204;28;20119;-67
2022/07/03 08:33:07;;;;;;;2.10;0.73;;;27.00;97.10;;;;;;5074921;28;20047;-67
2022/07/03 08:35:33;;;;;;;2.80;0.47;;;27.50;98.70;;;;;;5075109;28;20028;-71
2022/07/03 08:37:59;;;;;;;2.83;0.93;;;27.90;98.30;;;;;;5074928;28;20093;-71
2022/07/03 08:40:25;;;;;;;3.03;0.75;;;28.10;98.10;;;;;;5074934;28;20036;-67
2022/07/03 08:42:55;;;;;;;1.67;0.82;;;27.90;98.00;;;;;;5074950;28;20036;-67
2022/07/03 08:45:22;;;;;;;3.97;1.23;;;27.80;96.60;;;;;;5074906;28;20040;-72
2022/07/03 08:47:50;;;;;;;1.15;0.70;;;27.70;97.60;;;;;;5074717;28;20044;-72
2022/07/03 08:50:18;;;;;;;1.70;0.70;;;27.40;97.70;;;;;;5074777;28;20086;-72
2022/07/03 08:52:45;;;;;;;4.15;1.05;;;27.80;97.90;;;;;;5074677;28;20037;-72
2022/07/03 08:55:13;;;;;;;1.88;0.85;;;27.60;96.80;;;;;;5074810;28;20098;-66
2022/07/03 08:57:40;;;;;;;4.07;0.95;;;27.90;97.30;;;;;;5074564;28;20127;-70
2022/07/03 09:00:12;;;;;;;1.83;0.68;;;26.70;96.20;;;;;;5074552;28;20495;-66
2022/07/03 09:02:43;;;;;;;2.03;0.90;;;26.60;97.50;;;;;;5073856;28;20086;-72
2022/07/03 09:05:10;;;;;;;2.55;0.65;;;26.40;96.60;;;;;;5074721;28;20036;-68
2022/07/03 09:07:37;;;;;;;2.05;0.90;;;26.20;97.20;;;;;;5073183;28;20468;-67
2022/07/03 09:10:05;;;;;;;2.72;0.85;;;26.10;96.50;;;;;;5074369;28;20495;-71
2022/07/03 09:12:31;;;;;;;1.10;0.60;;;27.00;98.00;;;;;;5074168;28;20043;-66
2022/07/03 09:14:58;;;;;;;1.92;0.82;;;27.60;96.60;;;;;;5074148;28;20036;-67
2022/07/03 09:17:24;;;;;;;1.20;0.55;;;27.70;96.30;;;;;;5074242;28;20045;-66
2022/07/03 09:19:50;;;;;;;2.92;0.93;;;27.40;96.10;;;;;;5074328;28;20047;-70
2022/07/03 09:22:24;;;;;;;2.72;1.35;;;26.50;96.30;;;;;;5074308;28;20044;-66
2022/07/03 09:24:52;;;;;;;1.45;0.85;;;27.60;96.30;;;;;;5074309;28;20064;-72
2022/07/03 09:27:21;;;;;;;1.75;0.88;;;27.70;96.00;;;;;;5074337;28;20045;-66
2022/07/03 09:30:01;;;;;;;1.77;0.85;;;27.30;95.80;;;;;;5061552;28;20036;-66
2022/07/03 09:32:48;;;;;;;3.55;0.85;;;27.80;95.40;;;;;;5052852;28;20103;-66
2022/07/03 09:35:22;;;;;;;1.60;0.88;;;28.10;97.70;;;;;;5054099;28;20029;-65
2022/07/03 09:38:04;;;;;;;2.75;0.70;;;27.80;96.80;;;;;;5053766;28;20047;-72
2022/07/03 09:40:51;;;;;;;6.95;1.15;;;27.60;96.00;;;;;;5054100;28;20385;-73
2022/07/03 09:43:23;;;;;;;0.98;0.80;;;28.50;97.60;;;;;;5054138;28;20076;-72
2022/07/03 09:46:00;;;;;;;1.10;0.70;;;28.50;95.60;;;;;;5066715;28;20041;-66
2022/07/03 09:48:31;;;;;;;2.60;0.90;;;28.60;94.70;;;;;;5073919;28;20435;-67
2022/07/03 09:51:10;;;;;;;1.33;0.80;;;28.90;97.10;;;;;;5074029;28;20093;-66
2022/07/03 09:53:56;;;;;;;3.20;0.80;;;28.80;95.60;;;;;;5074052;28;20041;-66
2022/07/03 09:56:36;;;;;;;4.38;0.73;;;29.00;96.50;;;;;;5073952;28;20495;-71
2022/07/03 09:59:03;;;;;;;;;;;29.00;96.30;;;;;;5072901;28;20052;-70
2022/07/03 10:01:30;;;;;;;0.85;0.55;;;27.60;95.00;;;;;;5073920;28;19916;-66
2022/07/03 10:04:21;;;;;;;5.95;0.88;;;27.30;94.90;;;;;;5073883;28;20093;-67
2022/07/03 10:06:48;;;;;;;1.00;0.50;;;28.20;97.20;;;;;;5073727;28;20041;-66
2022/07/03 10:09:19;;;;;;;2.58;0.60;;;27.70;94.40;;;;;;5073420;28;20032;-66
2022/07/03 10:11:45;;;;;;;2.35;0.68;;;27.30;94.90;;;;;;5074210;28;20041;-72
2022/07/03 10:14:14;;;;;;;11.75;0.90;;;27.40;95.10;;;;;;5077288;28;20124;-71
2022/07/03 10:16:41;;;;;;;2.75;0.70;;;28.10;97.10;;;;;;5077933;28;20047;-67
2022/07/03 10:19:19;;;;;;;3.20;0.82;;;27.60;93.90;;;;;;5077741;28;20498;-66
2022/07/03 10:21:55;;;;;;;2.00;0.70;;;27.90;94.80;;;;;;5077692;28;20526;-66
2022/07/03 10:24:29;;;;;;;4.57;0.85;;;28.40;94.60;;;;;;5077560;28;20036;-70
2022/07/03 10:26:57;;;;;;;1.73;0.73;;;27.40;93.60;;;;;;5077555;28;20032;-65
2022/07/03 10:29:25;;;;;;;1.27;0.60;;;27.30;93.10;;;;;;5077450;28;20033;-67
2022/07/03 10:31:51;;;;;;;1.00;0.70;;;27.20;93.50;;;;;;5077248;28;20541;-67
2022/07/03 10:34:23;;;;;;;5.40;0.70;;;27.70;96.70;;;;;;5077347;28;20040;-72
2022/07/03 10:37:16;;;;;;;4.25;1.30;;;27.60;94.20;;;;;;5077244;28;20043;-67
2022/07/03 10:46:14;;;;;;;2.05;0.88;;;27.50;95.00;;;;;;5077212;28;20048;-66
2022/07/03 10:49:00;;;;;;;2.50;0.90;;;26.80;95.80;;;;;;5077103;28;20146;-71
2022/07/03 10:51:31;;;;;;;3.50;0.80;;;26.80;95.40;;;;;;5076970;28;20570;-69
2022/07/03 10:54:36;;;;;;;2.97;0.95;;;27.40;96.10;;;;;;5077164;28;20040;-67
2022/07/03 10:57:06;;;;;;;2.17;0.80;;;27.40;95.90;;;;;;5076721;28;20040;-66
2022/07/03 10:59:34;;;;;;;1.07;0.70;;;27.50;95.20;;;;;;5077127;28;20369;-66
2022/07/03 11:02:22;;;;;;;1.92;0.95;;;27.50;95.80;;;;;;5076985;28;20066;-67
2022/07/03 11:05:00;;;;;;;2.95;0.85;;;27.00;95.70;;;;;;5076668;28;20456;-66
2022/07/03 11:07:32;;;;;;;1.42;0.85;;;27.30;96.00;;;;;;5076621;28;20041;-72
2022/07/03 11:10:10;;;;;;;4.32;1.02;;;27.60;96.10;;;;;;5076719;28;20071;-72
2022/07/03 11:13:04;;;;;;;2.15;0.63;;;27.20;96.10;;;;;;5076737;28;20036;-71
2022/07/03 11:15:40;;;;;;;3.00;0.98;;;27.20;96.10;;;;;;5076587;28;20119;-69
2022/07/03 11:18:16;;;;;;;1.00;0.75;;;26.80;96.10;;;;;;5076404;28;20072;-66
2022/07/03 11:20:42;;;;;;;2.92;1.00;;;26.70;96.80;;;;;;5076503;28;20115;-66
2022/07/03 11:23:31;;;;;;;1.50;0.80;;;26.40;96.70;;;;;;5076207;28;20518;-66
2022/07/03 11:26:08;;;;;;;4.90;1.10;;;26.50;96.80;;;;;;5075488;28;20101;-70
2022/07/03 11:28:34;;;;;;;5.07;1.08;;;26.80;96.50;;;;;;5076244;28;20088;-66
2022/07/03 11:31:13;;;;;;;7.13;1.00;;;26.80;95.50;;;;;;5076201;28;20071;-68
2022/07/03 11:33:54;;;;;;;1.90;0.98;;;27.00;96.60;;;;;;5076549;28;20066;-66
2022/07/03 11:36:30;;;;;;;1.38;0.70;;;26.90;95.90;;;;;;5076398;28;20115;-66
2022/07/03 11:38:57;;;;;;;3.75;0.80;;;26.70;96.90;;;;;;5076136;28;20415;-66
2022/07/03 11:41:26;;;;;;;3.85;0.80;;;26.80;96.80;;;;;;5076060;28;20032;-66
2022/07/03 11:44:04;;;;;;;1.47;0.60;;;27.00;96.60;;;;;;5076275;28;20040;-66
2022/07/03 11:46:31;;;;;;;1.67;0.70;;;27.10;96.30;;;;;;5076138;28;20032;-68
2022/07/03 11:49:17;;;;;;;2.05;1.00;;;27.20;95.90;;;;;;5075866;28;20040;-66
2022/07/03 11:52:04;;;;;;;1.70;1.10;;;27.40;96.10;;;;;;5075896;28;20068;-70
2022/07/03 11:54:48;;;;;;;3.00;0.73;;;27.80;96.20;;;;;;5075832;28;20051;-67
2022/07/03 11:57:14;;;;;;;1.25;0.90;;;28.10;96.80;;;;;;5075810;28;20066;-66
2022/07/03 11:59:40;;;;;;;1.92;0.90;;;28.00;95.70;;;;;;5075847;28;20036;-72
2022/07/03 12:02:06;;;;;;;1.05;0.68;;;28.20;96.40;;;;;;5075717;28;20376;-66
2022/07/03 12:04:32;;;;;;;5.20;0.68;;;28.40;95.50;;;;;;5075712;28;20102;-69
2022/07/03 12:06:59;;;;;;;5.43;1.08;;;28.60;96.50;;;;;;5075795;28;20449;-72
2022/07/03 12:09:30;;;;;;;1.75;0.93;;;28.20;94.50;;;;;;5075820;28;20040;-71
2022/07/03 12:12:04;;;;;;;2.15;0.70;;;28.50;96.80;;;;;;5075414;28;20044;-66
2022/07/03 12:14:43;;;;;;;1.13;0.75;;;28.60;95.70;;;;;;5075430;28;20372;-66
2022/07/03 12:17:12;;;;;;;3.20;0.80;;;28.50;95.10;;;;;;5075242;28;20039;-69
2022/07/03 12:19:45;;;;;;;1.75;0.63;;;28.40;95.30;;;;;;5075520;28;20995;-71
2022/07/03 12:22:11;;;;;;;2.97;0.80;;;28.20;96.10;;;;;;5075519;28;20123;-67
2022/07/03 12:24:36;;;;;;;2.35;0.80;;;28.30;96.20;;;;;;5075248;28;20584;-72
2022/07/03 12:27:04;;;;;;;3.28;0.85;;;28.60;95.30;;;;;;5075308;28;20076;-66
2022/07/03 12:29:31;;;;;;;2.67;0.88;;;28.40;96.40;;;;;;5075213;28;20039;-70
2022/07/03 12:31:56;;;;;;;2.28;0.82;;;28.00;95.50;;;;;;5075265;28;20039;-67
2022/07/03 12:34:22;;;;;;;0.88;0.75;;;27.70;95.60;;;;;;5073928;28;20124;-67
2022/07/03 12:36:59;;;;;;;3.08;0.88;;;28.20;96.60;;;;;;5074072;28;20036;-71
2022/07/03 12:39:45;;;;;;;1.20;0.68;;;28.50;96.00;;;;;;5075137;28;20097;-66
2022/07/03 12:42:18;;;;;;;2.75;1.00;;;28.60;95.30;;;;;;5074756;28;20033;-71
2022/07/03 12:44:58;;;;;;;2.15;0.80;;;28.90;96.60;;;;;;5074734;28;20399;-70
2022/07/03 12:47:25;;;;;;;1.73;0.90;;;28.90;95.10;;;;;;5074845;28;20123;-67
2022/07/03 12:50:02;;;;;;;2.05;0.77;;;28.80;96.40;;;;;;5074921;28;20040;-70
2022/07/03 12:52:29;;;;;;;1.92;1.00;;;28.70;95.50;;;;;;5074892;28;20048;-66
2022/07/03 12:54:56;;;;;;;4.75;0.85;;;28.20;95.60;;;;;;5075054;28;20468;-72
2022/07/03 13:00:11;;;;;;;1.67;0.90;;;28.50;95.40;;;;;;5074496;28;20043;-71
2022/07/03 13:02:39;;;;;;;2.75;0.80;;;28.40;95.00;;;;;;5074549;28;20119;-67
2022/07/03 13:05:15;;;;;;;3.15;0.90;;;28.40;95.50;;;;;;5074380;28;20490;-71
2022/07/03 13:07:43;;;;;;;3.28;1.00;;;28.50;95.20;;;;;;5073537;28;20044;-69
2022/07/03 13:10:09;;;;;;;2.63;0.93;;;28.30;95.30;;;;;;5074451;28;20050;-68
2022/07/03 13:12:50;;;;;;;3.08;1.10;;;28.40;95.00;;;;;;5074290;28;20089;-66
2022/07/03 13:15:16;;;;;;;3.58;0.93;;;28.30;94.90;;;;;;5074366;28;20024;-70
2022/07/03 13:17:54;;;;;;;1.83;0.70;;;28.30;96.00;;;;;;5074328;28;20044;-71
2022/07/03 13:20:30;;;;;;;4.72;0.93;;;28.70;95.40;;;;;;5074288;28;20130;-71